EDT,Max TemperatureF,Mean TemperatureF,Min TemperatureF,Max Dew PointF,MeanDew PointF,Min DewpointF,Max Humidity, Mean Humidity, Min Humidity, Max Sea Level PressureIn, Mean Sea Level PressureIn, Min Sea Level PressureIn, Max VisibilityMiles, Mean VisibilityMiles, Min VisibilityMiles, Max Wind SpeedMPH, Mean Wind SpeedMPH, Max Gust SpeedMPH,PrecipitationIn, CloudCover, Events, WindDirDegrees
2013-3-1,42,40,37,32,30,27,75,66,57,29.83,29.76,29.68,10,10,10,12,8,18,0.00,5,,296
2013-3-2,39,37,35,27,23,19,65,57,48,29.83,29.80,29.76,10,10,10,16,8,22,0.00,5,,308
2013-3-3,37,34,32,23,19,16,60,52,45,29.83,29.79,29.74,10,10,10,17,11,29,0.00,6,,309
2013-3-4,39,34,30,21,19,16,60,53,48,29.99,29.90,29.83,10,10,10,21,14,32,0.00,4,,304
2013-3-5,44,38,32,30,24,19,75,61,49,30.07,30.01,29.90,10,10,10,15,10,28,0.00,1,,277
2013-3-6,42,38,35,37,35,30,93,85,70,29.89,29.68,29.50,10,6,2,41,21,59,1.46,8,,42
2013-3-7,44,38,33,32,29,27,87,65,53,30.08,29.99,29.82,10,10,10,18,13,29,0.03,8,,340
2013-3-8,41,36,32,34,29,21,87,74,56,30.19,30.09,30.03,10,8,2,17,12,26,0.03,8,,336
2013-3-9,53,43,32,30,26,23,80,56,35,30.31,30.25,30.18,10,10,10,14,7,21,0.00,0,,321
2013-3-10,44,35,26,37,32,23,93,80,70,30.39,30.34,30.31,10,10,6,13,4,18,0.00,1,,93
2013-3-11,55,46,37,48,43,36,93,85,72,30.32,30.19,30.08,10,8,0,20,8,28,0.00,1,,152
2013-3-12,53,48,42,52,46,34,94,84,66,30.09,29.88,29.74,10,9,3,25,15,38,0.32,5,,187
2013-3-13,48,42,35,34,30,21,81,61,45,29.98,29.93,29.88,10,10,10,18,9,31,0.00,1,,292
2013-3-14,42,38,33,21,18,16,56,44,36,30.05,30.01,29.97,10,10,10,22,15,32,0.00,3,,292
2013-3-15,51,42,33,30,22,12,61,46,30,30.08,29.95,29.81,10,10,10,20,12,25,0.00,1,,256
2013-3-16,46,40,33,34,31,28,87,70,57,29.91,29.80,29.71,10,10,10,18,7,24,0.00,6,,55
2013-3-17,39,36,33,32,25,18,87,63,45,30.29,30.12,29.90,10,10,10,13,8,18,0.00,4,,354
2013-3-18,48,40,33,46,30,16,93,69,44,30.35,30.19,29.85,10,8,2,16,10,26,0.36,6,,70
2013-3-19,51,46,41,46,39,25,93,80,49,29.89,29.78,29.74,10,6,0,14,7,31,0.23,5,,279
2013-3-20,48,42,35,30,23,19,61,47,32,29.99,29.91,29.80,10,10,10,16,10,23,0.00,1,,267
2013-3-21,41,36,30,28,22,9,87,61,38,29.83,29.75,29.69,10,9,1,16,9,26,0.02,4,,329
2013-3-22,42,36,30,25,18,12,60,49,39,29.98,29.89,29.84,10,10,10,18,13,28,0.01,2,,284
2013-3-23,46,40,33,28,23,19,60,53,46,30.00,29.96,29.91,10,10,10,16,10,24,0.00,0,,302
2013-3-24,42,35,28,28,23,19,80,57,42,29.99,29.87,29.67,10,10,10,13,4,16,0.00,2,,42
2013-3-25,37,35,33,34,31,28,93,85,70,29.69,29.52,29.41,10,7,1,17,12,25,0.86,8,,12
2013-3-26,48,42,37,36,32,28,87,71,50,29.93,29.80,29.65,10,10,10,14,9,18,0.00,4,,284
2013-3-27,48,44,39,34,30,28,81,60,46,30.06,29.99,29.93,10,10,10,16,8,24,0.00,2,,292
2013-3-28,46,42,39,32,30,28,70,60,50,30.17,30.08,30.04,10,10,10,17,10,25,0.00,3,,296
2013-3-29,51,45,39,32,30,27,70,56,40,30.22,30.17,30.13,10,10,10,15,7,18,0.00,3,,290
2013-3-30,55,44,33,37,30,25,87,56,31,30.23,30.18,30.14,10,10,10,12,5,,0.00,0,,260
2013-3-31,51,45,39,48,41,34,93,78,58,30.18,29.97,29.74,10,9,2,20,10,29,0.09,4,,168